Аэропорт: Нальчик. Нальчик

ICAO: URMN

METAR:
2018/11/19 10:00
URMN 191000Z 07002MPS 0400 FG VV002 03/03 Q1023 R24/110060 NOSIG RMK QBB060 MT OBSC OBST OBSC QFE730
METAR:
2018/10/17 18:00
TAF URMN 171700Z 1718/1803 23003MPS 9999 SCT030